Flight Track Log - Related Links

Times and Time Zones

All times are in EDT time to prevent confusion due to time zone crossing. See the ACA445 flight status page for this flight to view local times or setup timezone preferences in your user account.

Time Position Orientation Groundspeed Altitude Reporting Facility
EDT Latitude Longitude Course Direction KTS MPH feet Rate Location/Type
Wed 09:09:15 AM 45.3118 -75.6969 86° East  Level FlightAware Approximate
Wed 09:09:53 AM 45.3167 -75.6000 65° Northeast 60 69 1,300  Level Toronto Center
Wed 09:10:53 AM 45.3333 -75.5500 305° West 150 173 3,900 2,160 Climbing Toronto Center
Wed 09:11:33 AM 45.3667 -75.6167 240° Southwest 180 207 4,900 2,040 Climbing Montreal Center
Wed 09:12:33 AM 45.3333 -75.7000 260° West 260 299 7,300 2,850 Climbing Montreal Center
Wed 09:13:33 AM 45.3167 -75.8333 248° West 280 322 10,600 2,350 Climbing Montreal Center
Wed 09:14:33 AM 45.2833 -75.9500 260° West 340 391 12,000 2,200 Climbing Montreal Center
Wed 09:15:33 AM 45.2667 -76.0833 253° West 380 437 15,000 2,750 Climbing Montreal Center
Wed 09:16:33 AM 45.2333 -76.2333 251° West 380 437 17,500 2,300 Climbing Montreal Center
Wed 09:17:33 AM 45.2000 -76.3667 245° Southwest 400 460 19,600 2,200 Climbing Montreal Center
Wed 09:18:33 AM 45.1500 -76.5167 247° West 410 472 21,900 2,050 Climbing Montreal Center
Wed 09:19:33 AM 45.1000 -76.6833 251° West 420 483 23,700 1,750 Climbing Montreal Center
Wed 09:20:33 AM 45.0667 -76.8167 247° West 430 495 25,400 1,800 Climbing Montreal Center
Wed 09:21:33 AM 45.0167 -76.9833 247° West 440 506 27,300 1,300 Climbing Montreal Center
Wed 09:22:33 AM 44.9667 -77.1500 247° West 430 495 28,000 350 Climbing Montreal Center
Wed 09:23:33 AM 44.9167 -77.3167 242° Southwest 430 495 28,000  Level Montreal Center
Wed 09:24:33 AM 44.8667 -77.4500 247° West 440 506 28,000  Level Montreal Center
Wed 09:25:33 AM 44.8167 -77.6167 247° West 430 495 28,000  Level Montreal Center
Wed 09:26:33 AM 44.7667 -77.7833 242° Southwest 430 495 28,000  Level Montreal Center
Wed 09:27:33 AM 44.7167 -77.9167 238° Southwest 440 506 28,000  Level Montreal Center
Wed 09:28:33 AM 44.6500 -78.0667 245° Southwest 440 506 28,000  Level Montreal Center
Wed 09:29:33 AM 44.6000 -78.2167 238° Southwest 440 506 28,000  Level Montreal Center
Wed 09:30:33 AM 44.5333 -78.3667 238° Southwest 440 506 28,000 -100 Level Montreal Center
Wed 09:31:33 AM 44.4667 -78.5167 238° Southwest 440 506 27,800 -750 Descending Montreal Center
Wed 09:32:33 AM 44.4000 -78.6667 245° Southwest 440 506 26,500 -2,050 Descending Montreal Center
Wed 09:33:33 AM 44.3500 -78.8167 239° Southwest 420 483 23,700 -2,700 Descending Montreal Center
Wed 09:34:33 AM 44.3000 -78.9333 242° Southwest 410 472 21,100 -2,550 Descending Montreal Center
Wed 09:35:33 AM 44.2500 -79.0667 216° Southwest 390 449 18,600 -1,700 Descending Montreal Center
Wed 09:36:33 AM 44.1500 -79.1667 200° South 390 449 17,700 -1,157 Descending Montreal Center
Wed 09:37:53 AM 44.0500 -79.2167 227° Southwest 330 380 15,900 -1,457 Descending Toronto Center
Wed 09:38:53 AM 43.9833 -79.3167 200° South 310 357 14,300 -1,500 Descending Toronto Center
Wed 09:39:53 AM 43.9167 -79.3500 216° Southwest 300 345 12,900 -1,450 Descending Toronto Center
Wed 09:40:53 AM 43.8500 -79.4167 245° Southwest 290 334 11,400 -1,450 Descending Toronto Center
Wed 09:41:53 AM 43.8167 -79.5167 245° Southwest 280 322 10,000 -1,400 Descending Toronto Center
Wed 09:42:53 AM 43.7833 -79.6167 230° Southwest 270 311 8,600 -1,250 Descending Toronto Center
Wed 09:43:53 AM 43.7333 -79.7000 235° Southwest 260 299 7,500 -1,800 Descending Toronto Center
Wed 09:44:53 AM 43.7000 -79.7667 224° Southwest 240 276 5,000 -2,200 Descending Toronto Center
Wed 09:45:53 AM 43.6500 -79.8333 206° Southwest 250 288 3,100 -1,000 Descending Toronto Center
Wed 09:46:53 AM 43.6000 -79.8667 144° Southeast 230 265 3,000 -50 Descending Toronto Center
Wed 09:47:53 AM 43.5500 -79.8167 47° Northeast 210 242 3,000 -50 Level Toronto Center
Wed 09:48:53 AM 43.5833 -79.7667 47° Northeast 210 242 2,900 -100 Descending Toronto Center

Login

Don't have an account? Register now (free) for customized features, flight alerts, and more!